sensor_id;sensor_type;location;lat;lon;timestamp;temperature;humidity
19588;DHT22;9940;47.252;8.696;2023-03-26T14:34:23;15.30;52.50
19588;DHT22;9940;47.252;8.696;2023-03-26T15:10:20;7.50;87.10
19588;DHT22;9940;47.252;8.696;2023-03-26T15:23:56;7.40;95.10
19588;DHT22;9940;47.252;8.696;2023-03-26T15:43:17;8.10;94.80
19588;DHT22;9940;47.252;8.696;2023-03-26T15:45:51;8.20;94.70
19588;DHT22;9940;47.252;8.696;2023-03-26T15:48:27;8.30;94.70
19588;DHT22;9940;47.252;8.696;2023-03-26T15:57:55;8.50;94.20
19588;DHT22;9940;47.252;8.696;2023-03-26T16:00:33;8.60;94.00
19588;DHT22;9940;47.252;8.696;2023-03-26T16:03:42;8.70;93.90
19588;DHT22;9940;47.252;8.696;2023-03-26T16:06:59;8.70;93.50
19588;DHT22;9940;47.252;8.696;2023-03-26T16:12:03;8.80;92.60
19588;DHT22;9940;47.252;8.696;2023-03-26T16:20:53;8.90;91.20
19588;DHT22;9940;47.252;8.696;2023-03-26T16:23:49;9.00;91.00
19588;DHT22;9940;47.252;8.696;2023-03-26T16:33:46;8.90;90.50
19588;DHT22;9940;47.252;8.696;2023-03-26T16:36:41;8.40;92.70
19588;DHT22;9940;47.252;8.696;2023-03-26T16:47:16;6.60;99.90
19588;DHT22;9940;47.252;8.696;2023-03-26T16:55:15;6.30;99.90
19588;DHT22;9940;47.252;8.696;2023-03-26T16:58:07;6.30;99.90
19588;DHT22;9940;47.252;8.696;2023-03-26T17:06:00;6.10;99.90
19588;DHT22;9940;47.252;8.696;2023-03-26T17:27:44;6.70;99.90
19588;DHT22;9940;47.252;8.696;2023-03-26T17:41:13;6.60;99.90
19588;DHT22;9940;47.252;8.696;2023-03-26T17:49:03;6.70;99.90
19588;DHT22;9940;47.252;8.696;2023-03-26T17:51:49;6.60;99.90
19588;DHT22;9940;47.252;8.696;2023-03-26T17:54:41;6.50;99.90
19588;DHT22;9940;47.252;8.696;2023-03-26T17:59:46;6.30;99.90
19588;DHT22;9940;47.252;8.696;2023-03-26T18:02:20;6.30;99.90
19588;DHT22;9940;47.252;8.696;2023-03-26T18:04:50;6.20;99.90
19588;DHT22;9940;47.252;8.696;2023-03-26T18:10:46;6.20;99.90
19588;DHT22;9940;47.252;8.696;2023-03-26T18:19:22;6.30;99.90
19588;DHT22;9940;47.252;8.696;2023-03-26T18:21:38;6.40;99.90
19588;DHT22;9940;47.252;8.696;2023-03-26T18:24:06;6.40;99.90
19588;DHT22;9940;47.252;8.696;2023-03-26T18:26:41;6.50;99.90
19588;DHT22;9940;47.252;8.696;2023-03-26T18:31:51;6.60;99.90
19588;DHT22;9940;47.252;8.696;2023-03-26T18:34:17;6.60;99.90
19588;DHT22;9940;47.252;8.696;2023-03-26T18:37:12;6.60;99.90
19588;DHT22;9940;47.252;8.696;2023-03-26T18:39:59;6.70;99.90
19588;DHT22;9940;47.252;8.696;2023-03-26T18:42:30;6.80;99.90
19588;DHT22;9940;47.252;8.696;2023-03-26T18:44:57;6.80;99.90
19588;DHT22;9940;47.252;8.696;2023-03-26T18:47:27;7.00;99.90
19588;DHT22;9940;47.252;8.696;2023-03-26T18:49:55;7.00;99.90
19588;DHT22;9940;47.252;8.696;2023-03-26T18:52:27;7.10;99.90
19588;DHT22;9940;47.252;8.696;2023-03-26T18:54:56;7.10;99.90
19588;DHT22;9940;47.252;8.696;2023-03-26T18:57:26;7.10;99.90
19588;DHT22;9940;47.252;8.696;2023-03-26T19:00:03;7.20;99.90
19588;DHT22;9940;47.252;8.696;2023-03-26T19:02:35;7.20;99.90
19588;DHT22;9940;47.252;8.696;2023-03-26T19:05:04;7.20;99.90
19588;DHT22;9940;47.252;8.696;2023-03-26T19:07:30;7.20;99.90
19588;DHT22;9940;47.252;8.696;2023-03-26T19:09:59;7.20;99.90
19588;DHT22;9940;47.252;8.696;2023-03-26T19:12:30;7.20;99.90
19588;DHT22;9940;47.252;8.696;2023-03-26T19:15:05;7.20;99.90
19588;DHT22;9940;47.252;8.696;2023-03-26T19:17:45;7.20;99.90
19588;DHT22;9940;47.252;8.696;2023-03-26T19:20:23;7.30;99.90
19588;DHT22;9940;47.252;8.696;2023-03-26T19:22:51;7.30;99.90
19588;DHT22;9940;47.252;8.696;2023-03-26T19:25:22;7.30;99.90
19588;DHT22;9940;47.252;8.696;2023-03-26T19:27:53;7.30;99.90
19588;DHT22;9940;47.252;8.696;2023-03-26T19:30:39;7.40;99.90
19588;DHT22;9940;47.252;8.696;2023-03-26T19:33:16;7.40;99.90
19588;DHT22;9940;47.252;8.696;2023-03-26T19:35:50;7.40;99.90
19588;DHT22;9940;47.252;8.696;2023-03-26T19:38:27;7.40;99.90
19588;DHT22;9940;47.252;8.696;2023-03-26T19:40:55;7.50;99.90
19588;DHT22;9940;47.252;8.696;2023-03-26T19:43:23;7.50;99.90
19588;DHT22;9940;47.252;8.696;2023-03-26T19:45:50;7.60;99.90
19588;DHT22;9940;47.252;8.696;2023-03-26T19:48:18;7.60;99.90
19588;DHT22;9940;47.252;8.696;2023-03-26T19:51:01;7.60;99.90
19588;DHT22;9940;47.252;8.696;2023-03-26T19:53:35;7.60;99.90
19588;DHT22;9940;47.252;8.696;2023-03-26T19:58:35;7.70;99.90
19588;DHT22;9940;47.252;8.696;2023-03-26T20:01:02;7.70;99.90
19588;DHT22;9940;47.252;8.696;2023-03-26T20:03:35;7.70;99.90
19588;DHT22;9940;47.252;8.696;2023-03-26T20:08:31;7.80;99.90
19588;DHT22;9940;47.252;8.696;2023-03-26T20:10:57;7.80;99.90
19588;DHT22;9940;47.252;8.696;2023-03-26T20:13:22;7.80;99.90
19588;DHT22;9940;47.252;8.696;2023-03-26T20:16:01;7.80;99.90
19588;DHT22;9940;47.252;8.696;2023-03-26T20:18:28;7.90;99.90
19588;DHT22;9940;47.252;8.696;2023-03-26T20:20:54;7.90;99.90
19588;DHT22;9940;47.252;8.696;2023-03-26T20:23:22;8.00;99.90
19588;DHT22;9940;47.252;8.696;2023-03-26T20:25:53;8.00;99.90
19588;DHT22;9940;47.252;8.696;2023-03-26T20:28:20;8.00;99.90
19588;DHT22;9940;47.252;8.696;2023-03-26T20:30:46;8.10;99.90
19588;DHT22;9940;47.252;8.696;2023-03-26T20:33:32;8.00;99.90
19588;DHT22;9940;47.252;8.696;2023-03-26T20:35:59;8.00;99.90
19588;DHT22;9940;47.252;8.696;2023-03-26T20:38:25;7.90;99.90
19588;DHT22;9940;47.252;8.696;2023-03-26T20:40:52;7.90;99.90
19588;DHT22;9940;47.252;8.696;2023-03-26T20:43:19;7.80;99.90
19588;DHT22;9940;47.252;8.696;2023-03-26T20:45:50;7.70;99.90
19588;DHT22;9940;47.252;8.696;2023-03-26T20:48:16;7.70;99.90
19588;DHT22;9940;47.252;8.696;2023-03-26T20:50:44;7.70;99.90
19588;DHT22;9940;47.252;8.696;2023-03-26T20:53:12;7.70;99.90
19588;DHT22;9940;47.252;8.696;2023-03-26T20:55:39;7.70;99.90
19588;DHT22;9940;47.252;8.696;2023-03-26T20:58:14;7.60;99.90
19588;DHT22;9940;47.252;8.696;2023-03-26T21:00:47;7.60;99.90
19588;DHT22;9940;47.252;8.696;2023-03-26T21:03:16;7.50;99.90
19588;DHT22;9940;47.252;8.696;2023-03-26T21:05:42;7.40;99.90
19588;DHT22;9940;47.252;8.696;2023-03-26T21:08:17;7.30;99.90
19588;DHT22;9940;47.252;8.696;2023-03-26T21:10:48;7.20;99.90
19588;DHT22;9940;47.252;8.696;2023-03-26T21:13:38;7.10;99.90
19588;DHT22;9940;47.252;8.696;2023-03-26T21:16:05;7.10;99.90
19588;DHT22;9940;47.252;8.696;2023-03-26T21:18:35;7.10;99.90
19588;DHT22;9940;47.252;8.696;2023-03-26T21:23:55;7.00;99.90
19588;DHT22;9940;47.252;8.696;2023-03-26T21:29:12;7.00;99.90
19588;DHT22;9940;47.252;8.696;2023-03-26T21:31:40;7.00;99.90
19588;DHT22;9940;47.252;8.696;2023-03-26T21:34:08;6.90;99.90
19588;DHT22;9940;47.252;8.696;2023-03-26T21:36:40;7.00;99.90
19588;DHT22;9940;47.252;8.696;2023-03-26T21:39:07;6.90;99.90
19588;DHT22;9940;47.252;8.696;2023-03-26T21:41:44;6.90;99.90
19588;DHT22;9940;47.252;8.696;2023-03-26T21:44:10;7.00;99.90
19588;DHT22;9940;47.252;8.696;2023-03-26T21:46:36;7.00;99.90
19588;DHT22;9940;47.252;8.696;2023-03-26T21:49:02;7.00;99.90
19588;DHT22;9940;47.252;8.696;2023-03-26T21:51:30;7.00;99.90
19588;DHT22;9940;47.252;8.696;2023-03-26T21:53:56;6.90;99.90
19588;DHT22;9940;47.252;8.696;2023-03-26T22:01:57;6.80;99.90
19588;DHT22;9940;47.252;8.696;2023-03-26T22:04:48;6.80;99.90
19588;DHT22;9940;47.252;8.696;2023-03-26T22:07:18;6.80;99.90
19588;DHT22;9940;47.252;8.696;2023-03-26T22:09:47;6.80;99.90
19588;DHT22;9940;47.252;8.696;2023-03-26T22:12:16;6.70;99.90
19588;DHT22;9940;47.252;8.696;2023-03-26T22:14:44;6.70;99.90
19588;DHT22;9940;47.252;8.696;2023-03-26T22:17:10;6.70;99.90
19588;DHT22;9940;47.252;8.696;2023-03-26T22:19:35;6.70;99.90
19588;DHT22;9940;47.252;8.696;2023-03-26T22:22:01;6.70;99.90
19588;DHT22;9940;47.252;8.696;2023-03-26T22:24:27;6.80;99.90
19588;DHT22;9940;47.252;8.696;2023-03-26T22:26:53;6.80;99.90
19588;DHT22;9940;47.252;8.696;2023-03-26T22:29:19;6.90;99.90
19588;DHT22;9940;47.252;8.696;2023-03-26T22:31:44;6.90;99.90
19588;DHT22;9940;47.252;8.696;2023-03-26T22:34:10;7.00;99.90
19588;DHT22;9940;47.252;8.696;2023-03-26T22:36:38;7.00;99.90
19588;DHT22;9940;47.252;8.696;2023-03-26T22:39:04;7.00;99.90
19588;DHT22;9940;47.252;8.696;2023-03-26T22:41:30;7.00;99.90
19588;DHT22;9940;47.252;8.696;2023-03-26T22:43:56;7.00;99.90
19588;DHT22;9940;47.252;8.696;2023-03-26T22:46:23;7.10;99.90
19588;DHT22;9940;47.252;8.696;2023-03-26T22:48:49;7.10;99.90
19588;DHT22;9940;47.252;8.696;2023-03-26T22:51:16;7.20;99.90
19588;DHT22;9940;47.252;8.696;2023-03-26T22:53:43;7.20;99.90
19588;DHT22;9940;47.252;8.696;2023-03-26T22:56:11;7.20;99.90
19588;DHT22;9940;47.252;8.696;2023-03-26T22:58:38;7.30;99.90
19588;DHT22;9940;47.252;8.696;2023-03-26T23:01:11;7.30;99.90
19588;DHT22;9940;47.252;8.696;2023-03-26T23:03:37;7.30;99.90
19588;DHT22;9940;47.252;8.696;2023-03-26T23:06:08;7.30;99.90
19588;DHT22;9940;47.252;8.696;2023-03-26T23:08:35;7.30;99.90
19588;DHT22;9940;47.252;8.696;2023-03-26T23:11:07;7.30;99.90
19588;DHT22;9940;47.252;8.696;2023-03-26T23:13:33;7.30;99.90
19588;DHT22;9940;47.252;8.696;2023-03-26T23:16:00;7.30;99.90
19588;DHT22;9940;47.252;8.696;2023-03-26T23:18:30;7.20;99.90
19588;DHT22;9940;47.252;8.696;2023-03-26T23:20:56;7.20;99.90
19588;DHT22;9940;47.252;8.696;2023-03-26T23:23:33;7.20;99.90
19588;DHT22;9940;47.252;8.696;2023-03-26T23:26:01;7.20;99.90
19588;DHT22;9940;47.252;8.696;2023-03-26T23:28:28;7.20;99.90
19588;DHT22;9940;47.252;8.696;2023-03-26T23:30:56;7.20;99.90
19588;DHT22;9940;47.252;8.696;2023-03-26T23:33:25;7.20;99.90
19588;DHT22;9940;47.252;8.696;2023-03-26T23:35:53;7.20;99.90
19588;DHT22;9940;47.252;8.696;2023-03-26T23:38:25;7.20;99.90
19588;DHT22;9940;47.252;8.696;2023-03-26T23:40:52;7.20;99.90
19588;DHT22;9940;47.252;8.696;2023-03-26T23:43:21;7.20;99.90
19588;DHT22;9940;47.252;8.696;2023-03-26T23:45:46;7.20;99.90
19588;DHT22;9940;47.252;8.696;2023-03-26T23:48:13;7.20;99.90
19588;DHT22;9940;47.252;8.696;2023-03-26T23:50:47;7.20;99.90
19588;DHT22;9940;47.252;8.696;2023-03-26T23:53:19;7.20;99.90
19588;DHT22;9940;47.252;8.696;2023-03-26T23:55:48;7.10;99.90
19588;DHT22;9940;47.252;8.696;2023-03-26T23:58:16;7.10;99.90
